createdAt,value
2018-11-28T00:01:12.195Z,22.67
2018-11-28T00:06:14.535Z,21.40
2018-11-28T00:11:16.896Z,21.83
2018-11-28T00:16:19.218Z,21.63
2018-11-28T00:21:21.530Z,21.10
2018-11-28T00:26:24.916Z,20.73
2018-11-28T00:31:27.284Z,20.90
2018-11-28T00:36:29.614Z,20.33
2018-11-28T00:41:38.625Z,20.83
2018-11-28T00:46:40.954Z,19.00
2018-11-28T00:51:43.333Z,20.73
2018-11-28T00:56:45.656Z,18.57
2018-11-28T01:01:48.063Z,19.80
2018-11-28T01:06:50.411Z,19.23
2018-11-28T01:11:52.716Z,20.17
2018-11-28T01:16:55.027Z,20.20
2018-11-28T01:21:57.408Z,21.07
2018-11-28T01:26:59.830Z,20.30
2018-11-28T01:32:02.145Z,18.13
2018-11-28T01:37:04.522Z,21.03
2018-11-28T01:42:06.834Z,19.03
2018-11-28T01:47:09.238Z,18.73
2018-11-28T01:52:11.529Z,19.97
2018-11-28T01:57:13.892Z,20.13
2018-11-28T02:02:17.239Z,19.77
2018-11-28T02:07:19.559Z,20.23
2018-11-28T02:12:21.911Z,20.10
2018-11-28T02:17:24.210Z,20.20
2018-11-28T02:22:26.509Z,20.40
2018-11-28T02:27:28.979Z,19.90
2018-11-28T02:32:31.281Z,20.60
2018-11-28T02:37:33.591Z,19.70
2018-11-28T02:42:35.950Z,19.77
2018-11-28T02:47:38.365Z,18.23
2018-11-28T02:52:40.691Z,18.13
2018-11-28T02:57:44.023Z,18.63
2018-11-28T03:02:46.365Z,17.77
2018-11-28T03:07:48.838Z,18.67
2018-11-28T03:12:51.547Z,17.90
2018-11-28T03:17:53.854Z,18.40
2018-11-28T03:22:56.147Z,18.83
2018-11-28T03:27:58.644Z,19.47
2018-11-28T03:33:01.002Z,20.53
2018-11-28T03:38:03.432Z,20.60
2018-11-28T03:43:06.189Z,20.33
2018-11-28T03:48:08.626Z,19.90
2018-11-28T03:53:11.656Z,18.83
2018-11-28T03:58:14.462Z,19.47
2018-11-28T04:03:18.184Z,20.13
2018-11-28T04:08:20.608Z,18.37
2018-11-28T04:13:23.029Z,19.50
2018-11-28T04:18:25.615Z,18.27
2018-11-28T04:23:27.922Z,19.80
2018-11-28T04:28:30.306Z,19.03
2018-11-28T04:33:32.663Z,19.67
2018-11-28T04:38:34.971Z,19.90
2018-11-28T04:43:37.379Z,20.40
2018-11-28T04:48:39.690Z,20.77
2018-11-28T04:53:42.013Z,19.80
2018-11-28T04:58:44.379Z,19.43
2018-11-28T05:03:46.764Z,18.33
2018-11-28T05:08:49.205Z,19.23
2018-11-28T05:13:51.529Z,20.50
2018-11-28T05:18:53.877Z,19.20
2018-11-28T05:23:56.200Z,19.57
2018-11-28T05:28:58.610Z,20.07
2018-11-28T05:34:02.083Z,18.87
2018-11-28T05:39:05.409Z,20.07
2018-11-28T05:44:07.769Z,18.77
2018-11-28T05:49:15.023Z,21.80
2018-11-28T05:54:12.485Z,20.07
2018-11-28T05:59:15.874Z,19.67
2018-11-28T06:04:18.615Z,20.60
2018-11-28T06:09:20.938Z,20.90
2018-11-28T06:14:23.265Z,21.53
2018-11-28T06:19:25.698Z,22.23
2018-11-28T06:24:28.017Z,22.20
2018-11-28T06:29:30.384Z,21.97
2018-11-28T06:34:32.735Z,22.00
2018-11-28T06:39:35.065Z,22.37
2018-11-28T06:44:37.564Z,23.23
2018-11-28T06:49:39.885Z,24.37
2018-11-28T06:54:42.262Z,22.90
2018-11-28T06:59:44.657Z,21.43
2018-11-28T07:04:47.960Z,23.20
2018-11-28T07:09:49.634Z,23.67
2018-11-28T07:14:51.958Z,23.53
2018-11-28T07:19:54.294Z,23.60
2018-11-28T07:24:56.617Z,25.00
2018-11-28T07:29:58.957Z,24.07
2018-11-28T07:35:01.411Z,24.30
2018-11-28T07:40:08.633Z,23.20
2018-11-28T07:45:11.569Z,24.00
2018-11-28T07:50:14.433Z,22.93
2018-11-28T07:55:16.736Z,22.73
2018-11-28T08:00:19.117Z,24.17
2018-11-28T08:05:21.444Z,21.83
2018-11-28T08:10:24.581Z,21.63
2018-11-28T08:15:27.016Z,24.57
2018-11-28T08:20:29.371Z,21.87
2018-11-28T08:25:31.917Z,21.67
2018-11-28T08:30:34.339Z,20.60
2018-11-28T08:35:36.739Z,20.87
2018-11-28T08:40:39.076Z,18.40
2018-11-28T08:45:41.418Z,19.30
2018-11-28T08:50:43.768Z,19.20
2018-11-28T08:55:46.097Z,19.40
2018-11-28T09:00:48.521Z,19.40
2018-11-28T09:05:51.508Z,19.50
2018-11-28T09:10:55.023Z,18.20
2018-11-28T09:15:57.365Z,18.17
2018-11-28T09:20:59.691Z,18.07
2018-11-28T09:26:02.022Z,18.23
2018-11-28T09:31:04.426Z,17.80
2018-11-28T09:36:06.839Z,18.67
2018-11-28T09:41:09.159Z,18.27
2018-11-28T09:46:11.486Z,18.33
2018-11-28T09:51:13.825Z,16.20
2018-11-28T09:56:16.146Z,16.57
2018-11-28T10:01:18.530Z,16.53
2018-11-28T10:06:20.859Z,15.43
2018-11-28T10:11:23.174Z,15.40
2018-11-28T10:16:25.484Z,14.27
2018-11-28T10:21:27.797Z,14.47
2018-11-28T10:26:30.489Z,15.03
2018-11-28T10:31:32.848Z,15.07
2018-11-28T10:36:35.164Z,15.00
2018-11-28T10:41:37.479Z,14.30
2018-11-28T10:46:39.835Z,13.67
2018-11-28T10:51:42.369Z,13.93
2018-11-28T10:56:44.701Z,14.57
2018-11-28T11:01:56.463Z,13.27
2018-11-28T11:07:05.080Z,13.60
2018-11-28T11:12:12.015Z,13.73
2018-11-28T11:17:14.396Z,13.13
2018-11-28T11:22:16.765Z,14.10
2018-11-28T11:27:19.081Z,14.20
2018-11-28T11:32:21.446Z,13.80
2018-11-28T11:37:23.822Z,13.37
2018-11-28T11:42:26.117Z,14.10
2018-11-28T11:47:28.429Z,13.27
2018-11-28T11:52:30.884Z,13.73
2018-11-28T11:57:34.305Z,13.63
2018-11-28T12:02:36.757Z,12.60
2018-11-28T12:07:39.114Z,13.97
2018-11-28T12:12:41.456Z,11.73
2018-11-28T12:17:46.078Z,12.23
2018-11-28T12:22:48.401Z,12.93
2018-11-28T12:27:50.720Z,12.70
2018-11-28T12:32:53.216Z,13.17
2018-11-28T12:37:55.605Z,12.80
2018-11-28T12:42:58.197Z,11.83
2018-11-28T12:48:00.603Z,12.43
2018-11-28T12:53:03.075Z,13.10
2018-11-28T12:58:08.030Z,12.70
2018-11-28T13:03:11.912Z,13.47
2018-11-28T13:08:14.628Z,12.73
2018-11-28T13:13:18.089Z,13.90
2018-11-28T13:18:19.350Z,12.83
2018-11-28T13:23:21.730Z,13.93
2018-11-28T13:28:24.068Z,13.57
2018-11-28T13:33:26.417Z,13.60
2018-11-28T13:38:28.716Z,13.83
2018-11-28T13:43:31.132Z,13.53
2018-11-28T13:48:33.541Z,13.43
2018-11-28T13:53:35.895Z,13.07
2018-11-28T13:58:38.266Z,14.27
2018-11-28T14:03:40.732Z,14.03
2018-11-28T14:08:43.088Z,13.17
2018-11-28T14:13:45.459Z,13.67
2018-11-28T14:18:47.809Z,13.07
2018-11-28T14:23:50.140Z,14.60
2018-11-28T14:28:52.565Z,14.80
2018-11-28T14:33:54.956Z,14.10
2018-11-28T14:38:57.434Z,13.53
2018-11-28T14:43:59.807Z,14.77
2018-11-28T14:49:02.186Z,15.13
2018-11-28T14:54:04.641Z,14.73
2018-11-28T14:59:06.999Z,15.00
2018-11-28T15:04:09.488Z,14.30
2018-11-28T15:09:17.721Z,15.20
2018-11-28T15:14:20.053Z,15.03
2018-11-28T15:19:22.477Z,14.47
2018-11-28T15:24:24.801Z,15.77
2018-11-28T15:29:27.161Z,16.33
2018-11-28T15:34:29.655Z,15.17
2018-11-28T15:39:31.990Z,16.17
2018-11-28T15:44:34.772Z,15.90
2018-11-28T15:49:37.223Z,15.30
2018-11-28T15:54:41.237Z,15.33
2018-11-28T15:59:43.649Z,15.33
2018-11-28T16:04:46.035Z,14.67
2018-11-28T16:09:55.520Z,14.93
2018-11-28T16:14:58.417Z,14.73
2018-11-28T16:20:01.832Z,15.83
2018-11-28T16:25:10.171Z,15.33
2018-11-28T16:30:14.281Z,15.73
2018-11-28T16:35:17.569Z,16.00
2018-11-28T16:40:20.873Z,15.83
2018-11-28T16:45:23.374Z,15.93
2018-11-28T16:50:25.815Z,15.40
2018-11-28T16:55:28.219Z,14.40
2018-11-28T17:00:32.066Z,16.23
2018-11-28T17:05:34.574Z,14.37
2018-11-28T17:10:37.193Z,14.70
2018-11-28T17:15:39.689Z,15.20
2018-11-28T17:20:43.081Z,16.17
2018-11-28T17:25:46.081Z,14.80
2018-11-28T17:30:50.249Z,15.27
2018-11-28T17:35:52.981Z,15.83
2018-11-28T17:40:55.941Z,16.63
2018-11-28T17:45:58.429Z,15.70
2018-11-28T17:51:00.880Z,16.13
2018-11-28T17:56:03.338Z,15.20
2018-11-28T18:01:06.759Z,15.97
2018-11-28T18:06:09.225Z,15.63
2018-11-28T18:11:12.865Z,15.70
2018-11-28T18:16:15.196Z,14.93
2018-11-28T18:21:17.884Z,16.03
2018-11-28T18:26:20.185Z,16.27
2018-11-28T18:31:22.500Z,16.47
2018-11-28T18:36:24.889Z,15.87
2018-11-28T18:41:27.324Z,15.47
2018-11-28T18:46:29.620Z,16.60
2018-11-28T18:51:32.681Z,15.10
2018-11-28T18:56:35.045Z,15.20
2018-11-28T19:01:37.385Z,15.87
2018-11-28T19:06:39.816Z,16.97
2018-11-28T19:11:42.541Z,15.57
2018-11-28T19:16:46.016Z,16.47
2018-11-28T19:23:59.870Z,16.47
2018-11-28T19:29:02.374Z,15.07
2018-11-28T19:34:05.026Z,14.93
2018-11-28T19:39:09.022Z,14.57
2018-11-28T19:44:11.401Z,15.50
2018-11-28T19:49:13.822Z,15.40
2018-11-28T19:54:16.173Z,15.40
2018-11-28T19:59:18.458Z,16.77
2018-11-28T20:04:22.757Z,16.50
2018-11-28T20:09:25.273Z,15.23
2018-11-28T20:14:27.836Z,16.73
2018-11-28T20:19:30.148Z,14.53
2018-11-28T20:24:32.558Z,15.77
2018-11-28T20:29:49.787Z,16.20
2018-11-28T20:34:52.208Z,16.40
2018-11-28T20:39:54.543Z,15.40
2018-11-28T20:44:57.191Z,16.43
2018-11-28T20:49:59.545Z,15.17
2018-11-28T20:55:02.061Z,15.80
2018-11-28T21:00:08.301Z,15.27
2018-11-28T21:05:11.737Z,15.93
2018-11-28T21:10:20.643Z,16.27
2018-11-28T21:15:23.448Z,15.67
2018-11-28T21:20:26.014Z,14.97
2018-11-28T21:25:28.329Z,15.90
2018-11-28T21:30:30.637Z,15.73
2018-11-28T21:35:34.553Z,15.93
2018-11-28T21:40:36.918Z,15.97
2018-11-28T21:45:39.397Z,16.07
2018-11-28T21:50:41.827Z,15.13
2018-11-28T21:55:44.181Z,16.37
2018-11-28T22:00:46.609Z,16.70
2018-11-28T22:05:48.988Z,15.73
2018-11-28T22:10:51.327Z,15.80
2018-11-28T22:15:53.616Z,16.33
2018-11-28T22:20:55.991Z,15.63
2018-11-28T22:25:58.276Z,15.87
2018-11-28T22:31:00.585Z,16.87
2018-11-28T22:36:02.885Z,16.60
2018-11-28T22:41:05.413Z,16.67
2018-11-28T22:46:07.718Z,16.40
2018-11-28T22:51:10.026Z,16.37
2018-11-28T22:56:12.384Z,16.80
2018-11-28T23:01:14.805Z,15.40
2018-11-28T23:06:17.193Z,14.80
2018-11-28T23:11:19.606Z,15.93
2018-11-28T23:16:22.056Z,15.80
2018-11-28T23:21:24.423Z,15.67
2018-11-28T23:26:26.751Z,15.93
2018-11-28T23:31:29.082Z,16.47
2018-11-28T23:36:31.406Z,15.70
2018-11-28T23:41:33.885Z,16.67
2018-11-28T23:46:36.205Z,15.97
2018-11-28T23:51:38.529Z,15.50
2018-11-28T23:56:40.861Z,15.53
